createdAt,value
2018-11-04T00:04:21.707Z,8.10
2018-11-04T00:09:25.546Z,10.20
2018-11-04T00:14:29.680Z,11.10
2018-11-04T00:19:33.386Z,9.10
2018-11-04T00:24:37.451Z,9.73
2018-11-04T00:29:41.458Z,9.53
2018-11-04T00:34:46.287Z,11.17
2018-11-04T00:39:49.980Z,11.43
2018-11-04T00:44:53.837Z,9.60
2018-11-04T00:49:57.307Z,11.23
2018-11-04T00:55:01.227Z,11.17
2018-11-04T01:00:11.384Z,8.90
2018-11-04T01:05:24.926Z,10.87
2018-11-04T01:10:29.098Z,9.43
2018-11-04T01:15:32.547Z,9.87
2018-11-04T01:20:40.087Z,7.57
2018-11-04T01:25:46.060Z,7.83
2018-11-04T01:30:49.752Z,8.57
2018-11-04T01:35:53.890Z,8.83
2018-11-04T01:40:57.810Z,10.77
2018-11-04T01:46:05.153Z,7.87
2018-11-04T01:51:09.401Z,7.87
2018-11-04T01:56:13.143Z,7.70
2018-11-04T02:01:18.392Z,9.37
2018-11-04T02:06:23.281Z,9.80
2018-11-04T02:11:27.823Z,10.70
2018-11-04T02:16:33.575Z,10.60
2018-11-04T02:21:38.142Z,9.90
2018-11-04T02:26:43.014Z,10.20
2018-11-04T02:31:47.091Z,11.20
2018-11-04T02:36:50.563Z,11.60
2018-11-04T02:41:54.961Z,9.90
2018-11-04T02:46:58.843Z,11.70
2018-11-04T02:52:02.296Z,12.00
2018-11-04T02:57:05.798Z,10.30
2018-11-04T03:02:20.256Z,10.60
2018-11-04T03:07:25.001Z,11.57
2018-11-04T03:12:29.362Z,11.60
2018-11-04T03:17:33.281Z,8.90
2018-11-04T03:22:42.480Z,8.90
2018-11-04T03:27:45.984Z,9.60
2018-11-04T03:32:49.882Z,9.23
2018-11-04T03:37:53.836Z,9.30
2018-11-04T03:42:57.967Z,9.53
2018-11-04T03:48:02.027Z,10.00
2018-11-04T03:53:06.554Z,9.50
2018-11-04T03:58:11.501Z,10.60
2018-11-04T04:03:15.035Z,9.17
2018-11-04T04:08:19.218Z,10.97
2018-11-04T04:13:23.367Z,11.33
2018-11-04T04:18:27.797Z,10.20
2018-11-04T04:23:31.522Z,10.23
2018-11-04T04:28:35.271Z,10.87
2018-11-04T04:33:38.795Z,11.03
2018-11-04T04:38:42.728Z,9.67
2018-11-04T04:43:46.449Z,10.57
2018-11-04T04:48:50.196Z,7.87
2018-11-04T04:53:54.092Z,8.50
2018-11-04T04:58:57.555Z,9.17
2018-11-04T05:04:01.375Z,7.60
2018-11-04T05:09:11.923Z,7.30
2018-11-04T05:14:15.874Z,6.80
2018-11-04T05:19:19.801Z,8.70
2018-11-04T05:24:23.968Z,7.67
2018-11-04T05:29:27.511Z,7.67
2018-11-04T05:34:31.219Z,6.43
2018-11-04T05:39:35.526Z,8.00
2018-11-04T05:44:39.226Z,6.60
2018-11-04T05:49:42.941Z,7.03
2018-11-04T05:54:48.360Z,6.43
2018-11-04T05:59:52.114Z,6.50
2018-11-04T06:04:55.947Z,7.53
2018-11-04T06:09:59.811Z,7.43
2018-11-04T06:15:03.770Z,6.80
2018-11-04T06:20:08.766Z,7.37
2018-11-04T06:25:12.344Z,6.67
2018-11-04T06:30:15.928Z,7.90
2018-11-04T06:35:19.355Z,7.17
2018-11-04T06:40:23.228Z,9.00
2018-11-04T06:45:26.781Z,10.33
2018-11-04T06:50:30.478Z,9.50
2018-11-04T06:55:34.395Z,11.03
2018-11-04T07:00:39.252Z,10.23
2018-11-04T07:05:43.665Z,12.37
2018-11-04T07:10:48.146Z,10.90
2018-11-04T07:15:53.291Z,11.70
2018-11-04T07:20:57.814Z,10.10
2018-11-04T07:26:01.705Z,10.33
2018-11-04T07:31:05.876Z,11.60
2018-11-04T07:36:09.579Z,11.77
2018-11-04T07:41:13.293Z,10.13
2018-11-04T07:46:17.691Z,10.73
2018-11-04T07:51:26.248Z,12.50
2018-11-04T07:56:30.865Z,11.50
2018-11-04T08:01:35.520Z,12.00
2018-11-04T08:06:39.026Z,11.90
2018-11-04T08:11:42.481Z,10.70
2018-11-04T08:16:45.826Z,9.53
2018-11-04T08:21:50.269Z,10.10
2018-11-04T08:26:54.502Z,14.83
2018-11-04T08:31:58.589Z,11.00
2018-11-04T08:37:02.304Z,15.27
2018-11-04T08:42:06.423Z,11.37
2018-11-04T08:47:10.853Z,11.60
2018-11-04T08:52:14.873Z,11.50
2018-11-04T08:57:18.336Z,14.60
2018-11-04T09:02:22.596Z,16.77
2018-11-04T09:07:32.859Z,17.80
2018-11-04T09:12:37.337Z,15.93
2018-11-04T09:17:40.923Z,17.83
2018-11-04T09:22:51.085Z,17.20
2018-11-04T09:27:54.677Z,14.07
2018-11-04T09:32:58.394Z,26.50
2018-11-04T09:38:02.527Z,20.20
2018-11-04T09:43:10.723Z,21.93
2018-11-04T09:48:15.306Z,23.20
2018-11-04T09:53:19.894Z,18.23
2018-11-04T09:58:25.626Z,31.03
2018-11-04T10:03:29.021Z,24.47
2018-11-04T10:08:32.927Z,28.27
2018-11-04T10:13:36.553Z,26.97
2018-11-04T10:18:41.439Z,24.07
2018-11-04T10:23:44.834Z,25.30
2018-11-04T10:28:48.567Z,27.87
2018-11-04T10:33:52.365Z,32.60
2018-11-04T10:38:55.745Z,23.60
2018-11-04T10:43:59.417Z,23.80
2018-11-04T10:49:03.017Z,22.23
2018-11-04T10:54:07.369Z,24.00
2018-11-04T10:59:10.761Z,15.10
2018-11-04T11:04:14.574Z,27.60
2018-11-04T11:09:18.205Z,20.80
2018-11-04T11:14:22.189Z,38.37
2018-11-04T11:19:29.978Z,29.23
2018-11-04T11:24:41.018Z,34.70
2018-11-04T11:29:45.178Z,32.73
2018-11-04T11:34:51.963Z,27.93
2018-11-04T11:39:58.668Z,19.60
2018-11-04T11:45:02.761Z,27.47
2018-11-04T11:50:06.715Z,25.83
2018-11-04T11:55:10.345Z,25.57
2018-11-04T12:00:14.147Z,22.13
2018-11-04T12:05:18.145Z,33.07
2018-11-04T12:10:21.545Z,22.93
2018-11-04T12:15:25.757Z,23.10
2018-11-04T12:20:29.613Z,23.87
2018-11-04T12:25:33.026Z,25.77
2018-11-04T12:30:38.726Z,23.00
2018-11-04T12:35:42.789Z,20.70
2018-11-04T12:40:49.971Z,21.77
2018-11-04T12:45:57.820Z,20.40
2018-11-04T12:52:21.299Z,20.20
2018-11-04T12:57:24.909Z,25.50
2018-11-04T13:02:28.775Z,29.60
2018-11-04T13:07:32.109Z,25.07
2018-11-04T13:12:35.981Z,24.10
2018-11-04T13:17:39.904Z,18.00
2018-11-04T13:22:43.757Z,27.53
2018-11-04T13:27:47.405Z,25.60
2018-11-04T13:32:50.760Z,25.10
2018-11-04T13:37:54.310Z,24.33
2018-11-04T13:42:58.562Z,26.10
2018-11-04T13:48:02.220Z,25.70
2018-11-04T13:53:05.938Z,40.53
2018-11-04T13:58:09.682Z,21.97
2018-11-04T14:03:15.936Z,25.57
2018-11-04T14:08:19.424Z,26.50
2018-11-04T14:13:23.162Z,25.87
2018-11-04T14:18:27.549Z,26.53
2018-11-04T14:23:30.967Z,28.33
2018-11-04T14:28:34.602Z,25.93
2018-11-04T14:33:38.798Z,29.00
2018-11-04T14:38:42.990Z,31.70
2018-11-04T14:43:48.131Z,25.50
2018-11-04T14:48:54.722Z,26.27
2018-11-04T14:53:58.605Z,30.03
2018-11-04T14:59:02.282Z,30.63
2018-11-04T15:04:06.014Z,29.50
2018-11-04T15:09:09.650Z,27.57
2018-11-04T15:14:13.543Z,23.10
2018-11-04T15:19:17.781Z,24.00
2018-11-04T15:24:21.145Z,27.93
2018-11-04T15:29:25.150Z,26.53
2018-11-04T15:34:28.662Z,26.50
2018-11-04T15:39:32.132Z,28.13
2018-11-04T15:44:35.785Z,28.07
2018-11-04T15:49:39.447Z,28.00
2018-11-04T15:54:43.400Z,26.97
2018-11-04T15:59:47.517Z,29.47
2018-11-04T16:04:51.725Z,28.03
2018-11-04T16:09:55.496Z,29.90
2018-11-04T16:14:58.897Z,33.67
2018-11-04T16:20:02.742Z,26.30
2018-11-04T16:25:07.389Z,27.87
2018-11-04T16:30:12.393Z,27.73
2018-11-04T16:35:16.301Z,29.53
2018-11-04T16:40:19.765Z,31.93
2018-11-04T16:45:23.469Z,35.13
2018-11-04T16:50:29.936Z,37.30
2018-11-04T16:55:33.754Z,31.20
2018-11-04T17:00:46.819Z,33.50
2018-11-04T17:05:50.849Z,33.60
2018-11-04T17:10:54.631Z,31.80
2018-11-04T17:15:58.043Z,32.90
2018-11-04T17:21:01.731Z,30.77
2018-11-04T17:26:05.304Z,27.10
2018-11-04T17:31:09.685Z,37.87
2018-11-04T17:36:13.135Z,26.30
2018-11-04T17:41:16.973Z,34.57
2018-11-04T17:46:21.782Z,33.90
2018-11-04T17:51:25.588Z,37.17
2018-11-04T17:56:28.967Z,41.70
2018-11-04T18:01:32.696Z,28.23
2018-11-04T18:06:36.381Z,35.33
2018-11-04T18:11:40.199Z,34.50
2018-11-04T18:16:43.590Z,30.20
2018-11-04T18:21:47.271Z,31.53
2018-11-04T18:26:53.196Z,31.10
2018-11-04T18:31:57.519Z,29.17
2018-11-04T18:37:01.418Z,29.60
2018-11-04T18:42:06.299Z,29.03
2018-11-04T18:47:10.158Z,31.30
2018-11-04T18:52:13.614Z,34.23
2018-11-04T18:57:17.041Z,29.87
2018-11-04T19:02:20.462Z,27.40
2018-11-04T19:07:25.304Z,31.10
2018-11-04T19:12:28.747Z,27.87
2018-11-04T19:17:32.507Z,33.33
2018-11-04T19:22:36.453Z,29.17
2018-11-04T19:27:41.323Z,33.80
2018-11-04T19:32:45.497Z,29.50
2018-11-04T19:37:48.980Z,30.10
2018-11-04T19:42:57.081Z,30.30
2018-11-04T19:48:01.178Z,28.30
2018-11-04T19:53:05.319Z,30.30
2018-11-04T19:58:09.037Z,29.47
2018-11-04T20:03:12.843Z,30.43
2018-11-04T20:08:16.799Z,27.13
2018-11-04T20:13:26.319Z,25.43
2018-11-04T20:18:35.217Z,41.60
2018-11-04T20:23:39.064Z,26.60
2018-11-04T20:28:42.903Z,27.20
2018-11-04T20:33:46.519Z,29.43
2018-11-04T20:38:55.231Z,26.47
2018-11-04T20:44:00.259Z,29.60
2018-11-04T20:49:09.633Z,30.20
2018-11-04T20:54:14.143Z,24.97
2018-11-04T20:59:23.348Z,28.27
2018-11-04T21:04:27.055Z,27.63
2018-11-04T21:09:30.445Z,24.30
2018-11-04T21:14:34.510Z,29.10
2018-11-04T21:19:38.378Z,25.80
2018-11-04T21:24:42.398Z,30.17
2018-11-04T21:29:46.755Z,25.17
2018-11-04T21:34:54.600Z,25.27
2018-11-04T21:39:58.163Z,22.83
2018-11-04T21:45:02.118Z,22.00
2018-11-04T21:50:06.378Z,26.40
2018-11-04T21:55:12.033Z,26.00
2018-11-04T22:00:17.038Z,26.50
2018-11-04T22:05:21.064Z,26.77
2018-11-04T22:10:25.050Z,30.20
2018-11-04T22:15:28.697Z,25.87
2018-11-04T22:20:32.748Z,22.80
2018-11-04T22:25:37.025Z,25.07
2018-11-04T22:30:45.356Z,30.77
2018-11-04T22:35:49.508Z,23.40
2018-11-04T22:40:59.626Z,24.53
2018-11-04T22:46:03.829Z,27.50
2018-11-04T22:51:07.845Z,25.90
2018-11-04T22:56:11.781Z,23.83
2018-11-04T23:01:15.295Z,24.93
2018-11-04T23:06:20.011Z,23.27
2018-11-04T23:11:23.533Z,23.53
2018-11-04T23:16:28.611Z,23.70
2018-11-04T23:21:32.069Z,24.83
2018-11-04T23:26:36.454Z,24.53
2018-11-04T23:31:39.859Z,26.40
2018-11-04T23:36:44.359Z,23.93
2018-11-04T23:41:48.527Z,26.70
2018-11-04T23:46:52.161Z,21.57
2018-11-04T23:51:55.758Z,29.70
2018-11-04T23:56:59.489Z,30.57
